Time;durP1;ratioP1;P1;durP2;ratioP2;P2;SDS_P1;SDS_P2;PMS_P1;PMS_P2;Temp;Humidity;BMP_temperature;BMP_pressure;BME280_temperature;BME280_humidity;BME280_pressure;Samples;Min_cycle;Max_cycle;Signal;HPM_P1;HPM_P2
2022/10/10 00:02:13;;;;;;;6.38;2.97;;;11.50;63.20;;;;;;4998773;28;20523;-76
2022/10/10 00:04:40;;;;;;;6.90;3.10;;;11.50;63.20;;;;;;5034780;28;20047;-76
2022/10/10 00:07:07;;;;;;;5.07;2.97;;;11.50;63.30;;;;;;5012086;28;20043;-76
2022/10/10 00:09:35;;;;;;;6.30;3.30;;;11.40;63.30;;;;;;5011621;28;20109;-77
2022/10/10 00:12:02;;;;;;;6.07;3.28;;;11.40;63.30;;;;;;5011668;28;20261;-76
2022/10/10 00:14:29;;;;;;;5.13;3.13;;;11.40;63.40;;;;;;5003385;28;20134;-76
2022/10/10 00:16:58;;;;;;;6.75;2.78;;;11.40;63.40;;;;;;5011555;28;20049;-76
2022/10/10 00:19:25;;;;;;;7.97;3.00;;;11.40;63.50;;;;;;4997971;28;20763;-76
2022/10/10 00:21:52;;;;;;;5.33;3.00;;;11.30;63.50;;;;;;5028068;28;20676;-76
2022/10/10 00:24:19;;;;;;;6.50;3.10;;;11.30;63.60;;;;;;5040278;28;20685;-76
2022/10/10 00:26:46;;;;;;;6.05;3.30;;;11.20;63.60;;;;;;5011377;28;20534;-76
2022/10/10 00:29:13;;;;;;;5.43;2.75;;;11.20;63.70;;;;;;5010963;28;20046;-77
2022/10/10 00:31:40;;;;;;;6.82;2.90;;;11.20;63.80;;;;;;5012687;28;20647;-76
2022/10/10 00:34:09;;;;;;;6.00;2.77;;;11.10;64.00;;;;;;5010869;28;20499;-76
2022/10/10 00:36:36;;;;;;;6.95;3.30;;;11.10;64.10;;;;;;5011893;28;20270;-76
2022/10/10 00:39:03;;;;;;;6.38;3.10;;;11.10;64.20;;;;;;5003802;28;20136;-76
2022/10/10 00:41:30;;;;;;;6.75;3.17;;;11.10;64.30;;;;;;5011426;28;20053;-76
2022/10/10 00:44:05;;;;;;;6.95;3.22;;;11.10;64.20;;;;;;5011411;28;20057;-76
2022/10/10 00:46:33;;;;;;;5.67;3.13;;;11.10;64.30;;;;;;5010930;28;20138;-76
2022/10/10 00:49:01;;;;;;;5.28;3.00;;;11.00;64.10;;;;;;5012570;28;20288;-76
2022/10/10 00:51:30;;;;;;;7.28;3.00;;;11.00;64.20;;;;;;5011013;28;20062;-76
2022/10/10 00:54:04;;;;;;;6.85;3.20;;;11.00;64.20;;;;;;4994196;28;20054;-76
2022/10/10 00:56:37;;;;;;;7.25;3.03;;;10.90;64.20;;;;;;5011228;28;20136;-76
2022/10/10 00:59:09;;;;;;;4.87;2.97;;;10.90;64.30;;;;;;4974955;28;20090;-76
2022/10/10 01:01:37;;;;;;;4.95;3.08;;;10.80;64.50;;;;;;4959151;28;20340;-76
2022/10/10 01:04:04;;;;;;;6.38;3.42;;;10.70;64.60;;;;;;4994663;28;20047;-77
2022/10/10 01:06:34;;;;;;;5.70;3.10;;;10.70;64.70;;;;;;4994466;28;20904;-76
2022/10/10 01:09:01;;;;;;;7.43;3.22;;;10.60;64.80;;;;;;5024453;28;20528;-76
2022/10/10 01:11:42;;;;;;;7.27;3.67;;;10.60;65.00;;;;;;5012139;28;20065;-76
2022/10/10 01:14:24;;;;;;;6.07;2.85;;;10.50;65.10;;;;;;4990946;28;21457;-76
2022/10/10 01:17:01;;;;;;;5.13;3.00;;;10.50;65.20;;;;;;4993493;28;20055;-76
2022/10/10 01:20:01;;;;;;;6.53;3.08;;;10.50;65.30;;;;;;5010736;28;20062;-76
2022/10/10 01:22:39;;;;;;;6.22;3.53;;;10.50;65.30;;;;;;5041930;22;20040;-76
2022/10/10 01:25:17;;;;;;;6.17;3.17;;;10.50;65.40;;;;;;5010591;28;20078;-76
2022/10/10 01:27:47;;;;;;;5.55;3.33;;;10.50;65.40;;;;;;4992642;28;20730;-76
2022/10/10 01:30:21;;;;;;;6.55;3.28;;;10.40;65.40;;;;;;5011403;28;20068;-76
2022/10/10 01:32:53;;;;;;;6.45;3.20;;;10.40;65.40;;;;;;4994099;28;20141;-76
2022/10/10 01:35:36;;;;;;;6.50;3.40;;;10.40;65.50;;;;;;4993928;28;20606;-76
2022/10/10 01:38:13;;;;;;;7.23;3.20;;;10.30;65.50;;;;;;5010173;28;20042;-76
2022/10/10 01:40:47;;;;;;;5.18;3.00;;;10.30;65.60;;;;;;5010944;28;20300;-76
2022/10/10 01:43:15;;;;;;;6.97;3.42;;;10.30;65.80;;;;;;5006032;28;20165;-76
2022/10/10 01:45:48;;;;;;;5.80;3.17;;;10.30;65.80;;;;;;4993781;28;20042;-76
2022/10/10 01:48:17;;;;;;;6.75;3.60;;;10.20;66.10;;;;;;5011752;28;20056;-76
2022/10/10 01:50:59;;;;;;;6.23;3.47;;;10.20;66.10;;;;;;5010193;28;20064;-76
2022/10/10 01:53:36;;;;;;;8.70;3.20;;;10.20;66.10;;;;;;5010174;28;20269;-77
2022/10/10 01:56:08;;;;;;;5.75;3.40;;;10.20;66.20;;;;;;5010132;28;20133;-76
2022/10/10 01:59:05;;;;;;;6.88;3.30;;;10.10;66.30;;;;;;5009906;28;20050;-76
2022/10/10 02:01:41;;;;;;;5.90;3.40;;;10.10;66.50;;;;;;4979428;28;20055;-76
2022/10/10 02:04:18;;;;;;;7.03;3.30;;;10.00;66.70;;;;;;4994072;28;20128;-76
2022/10/10 02:06:52;;;;;;;6.95;3.45;;;10.00;66.90;;;;;;5023002;28;20356;-76
2022/10/10 02:09:24;;;;;;;8.50;3.22;;;10.00;66.90;;;;;;5009992;28;20147;-76
2022/10/10 02:11:52;;;;;;;6.85;3.20;;;10.00;66.90;;;;;;5009827;28;20146;-76
2022/10/10 02:14:22;;;;;;;7.47;3.33;;;9.90;67.10;;;;;;5026780;28;20073;-76
2022/10/10 02:16:54;;;;;;;7.37;3.70;;;9.90;67.20;;;;;;5010532;28;20050;-76
2022/10/10 02:19:23;;;;;;;6.65;3.10;;;9.90;67.40;;;;;;4989896;28;20432;-76
2022/10/10 02:21:52;;;;;;;6.05;3.28;;;9.80;67.30;;;;;;5003085;28;20050;-76
2022/10/10 02:24:21;;;;;;;5.30;3.20;;;9.80;67.50;;;;;;5025913;28;20050;-76
2022/10/10 02:26:53;;;;;;;6.50;3.30;;;9.80;67.50;;;;;;5011324;28;20057;-76
2022/10/10 02:29:24;;;;;;;6.73;3.20;;;9.70;67.70;;;;;;5010683;28;20050;-77
2022/10/10 02:31:59;;;;;;;6.90;3.70;;;9.70;67.90;;;;;;5009571;28;20281;-76
2022/10/10 02:34:32;;;;;;;7.00;3.53;;;9.70;67.90;;;;;;5009691;28;20137;-76
2022/10/10 02:37:02;;;;;;;8.02;3.65;;;9.70;67.90;;;;;;4993483;28;20142;-76
2022/10/10 02:39:33;;;;;;;5.03;3.08;;;9.70;68.20;;;;;;4995168;28;20495;-76
2022/10/10 02:42:00;;;;;;;6.67;3.37;;;9.70;68.30;;;;;;5009283;28;20053;-76
2022/10/10 02:44:27;;;;;;;7.75;3.65;;;9.60;68.30;;;;;;5025595;28;20337;-76
2022/10/10 02:46:56;;;;;;;8.38;3.70;;;9.60;68.40;;;;;;5009418;28;20046;-76
2022/10/10 02:49:24;;;;;;;7.57;3.50;;;9.60;68.50;;;;;;5010516;28;20049;-76
2022/10/10 02:51:51;;;;;;;7.22;3.78;;;9.60;68.60;;;;;;5000642;28;20125;-76
2022/10/10 02:54:18;;;;;;;7.47;3.60;;;9.60;68.50;;;;;;4991679;28;20050;-76
2022/10/10 02:56:45;;;;;;;7.97;3.67;;;9.60;68.60;;;;;;5011080;28;20259;-76
2022/10/10 02:59:12;;;;;;;6.38;3.90;;;9.60;68.50;;;;;;5010595;28;20512;-76
2022/10/10 03:01:39;;;;;;;8.82;4.00;;;9.60;68.50;;;;;;5009429;28;20492;-76
2022/10/10 03:04:08;;;;;;;6.85;3.67;;;9.60;68.50;;;;;;5009358;28;20221;-76
2022/10/10 03:06:36;;;;;;;6.23;3.60;;;9.60;68.70;;;;;;5009350;28;20074;-76
2022/10/10 03:09:03;;;;;;;7.00;3.53;;;9.60;68.50;;;;;;4998641;28;20259;-76
2022/10/10 03:11:31;;;;;;;7.53;4.03;;;9.60;68.60;;;;;;4976207;28;20065;-76
2022/10/10 03:13:58;;;;;;;5.97;3.53;;;9.60;68.70;;;;;;5000453;28;20069;-76
2022/10/10 03:16:25;;;;;;;6.50;3.65;;;9.60;68.70;;;;;;5010784;28;20058;-76
2022/10/10 03:18:52;;;;;;;8.77;4.10;;;9.60;68.70;;;;;;5008706;28;20050;-76
2022/10/10 03:21:20;;;;;;;6.97;3.90;;;9.60;68.60;;;;;;5009359;28;20977;-76
2022/10/10 03:23:47;;;;;;;7.97;3.97;;;9.60;68.80;;;;;;5010135;28;20058;-76
2022/10/10 03:26:14;;;;;;;7.28;4.03;;;9.60;68.80;;;;;;5009143;28;20077;-76
2022/10/10 03:28:41;;;;;;;7.65;4.07;;;9.60;68.90;;;;;;5008771;28;20122;-76
2022/10/10 03:31:08;;;;;;;7.33;4.13;;;9.60;68.90;;;;;;5007564;28;20610;-76
2022/10/10 03:33:36;;;;;;;9.75;4.43;;;9.60;69.00;;;;;;4992115;28;20254;-76
2022/10/10 03:36:03;;;;;;;8.95;4.30;;;9.60;69.00;;;;;;5010054;28;20054;-76
2022/10/10 03:38:32;;;;;;;9.68;4.40;;;9.60;69.10;;;;;;5008346;28;20053;-76
2022/10/10 03:40:59;;;;;;;6.93;3.97;;;9.50;69.20;;;;;;5006731;28;20046;-76
2022/10/10 03:43:26;;;;;;;8.20;3.97;;;9.50;69.20;;;;;;4973688;28;20100;-76
2022/10/10 03:45:53;;;;;;;7.32;4.15;;;9.50;69.30;;;;;;5007274;28;20338;-76
2022/10/10 03:48:20;;;;;;;10.32;4.55;;;9.50;69.50;;;;;;5008804;28;20059;-76
2022/10/10 03:50:47;;;;;;;7.20;4.05;;;9.50;69.60;;;;;;5008445;28;20056;-76
2022/10/10 03:53:14;;;;;;;9.43;4.35;;;9.50;69.90;;;;;;4992386;28;20489;-76
2022/10/10 03:55:43;;;;;;;8.03;4.33;;;9.50;69.80;;;;;;4992643;28;20058;-76
2022/10/10 03:58:10;;;;;;;11.25;4.63;;;9.40;70.00;;;;;;5009831;28;20266;-76
2022/10/10 04:00:38;;;;;;;9.52;4.50;;;9.40;70.00;;;;;;4990615;28;20058;-76
2022/10/10 04:03:06;;;;;;;7.88;4.20;;;9.40;69.90;;;;;;5008728;28;20054;-76
2022/10/10 04:05:34;;;;;;;7.68;4.00;;;9.40;70.10;;;;;;5010450;28;20092;-76
2022/10/10 04:08:01;;;;;;;9.30;4.57;;;9.40;70.30;;;;;;4995729;28;20053;-76
2022/10/10 04:10:28;;;;;;;7.57;4.40;;;9.40;70.20;;;;;;4995585;28;20282;-76
2022/10/10 04:12:57;;;;;;;8.80;4.55;;;9.40;70.50;;;;;;5013381;28;20054;-76
2022/10/10 04:15:24;;;;;;;8.07;4.68;;;9.40;70.50;;;;;;4995336;28;20054;-76
2022/10/10 04:21:21;;;;;;;8.63;4.30;;;9.40;70.60;;;;;;4913936;29;20154;-76
2022/10/10 04:23:48;;;;;;;9.82;4.57;;;9.40;70.70;;;;;;4930597;29;20337;-76
2022/10/10 04:26:15;;;;;;;12.05;5.13;;;9.40;70.80;;;;;;4914718;29;20540;-76
2022/10/10 04:28:44;;;;;;;10.15;4.45;;;9.40;70.80;;;;;;4914729;29;20048;-76
2022/10/10 04:31:11;;;;;;;10.07;4.50;;;9.40;71.10;;;;;;4930525;28;20419;-76
2022/10/10 04:33:38;;;;;;;7.63;4.30;;;9.40;71.00;;;;;;4920556;29;20056;-76
2022/10/10 04:36:06;;;;;;;9.88;4.70;;;9.40;71.10;;;;;;4935325;29;20269;-76
2022/10/10 04:38:33;;;;;;;10.30;4.70;;;9.40;71.10;;;;;;4943620;28;20159;-76
2022/10/10 04:41:00;;;;;;;7.32;4.25;;;9.40;71.20;;;;;;4899016;29;20056;-76
2022/10/10 04:43:27;;;;;;;7.85;4.38;;;9.40;71.20;;;;;;4915716;29;20049;-76
2022/10/10 04:45:57;;;;;;;8.83;4.60;;;9.40;71.30;;;;;;4914324;29;20052;-76
2022/10/10 04:48:24;;;;;;;9.20;4.70;;;9.40;71.50;;;;;;4915698;29;20281;-76
2022/10/10 04:50:52;;;;;;;9.20;5.10;;;9.30;71.40;;;;;;4905010;29;20059;-76
2022/10/10 04:53:19;;;;;;;9.88;4.72;;;9.30;71.50;;;;;;4945507;28;20060;-76
2022/10/10 04:55:46;;;;;;;9.85;5.13;;;9.30;71.50;;;;;;4898383;29;20513;-76
2022/10/10 04:58:14;;;;;;;9.83;4.80;;;9.40;71.70;;;;;;4898597;29;20764;-77
2022/10/10 05:00:41;;;;;;;8.77;4.70;;;9.30;71.60;;;;;;4915289;29;20447;-76
2022/10/10 05:03:11;;;;;;;8.52;4.60;;;9.30;71.70;;;;;;4915620;29;20509;-76
2022/10/10 05:05:39;;;;;;;9.75;4.82;;;9.30;71.80;;;;;;4914224;29;20533;-76
2022/10/10 05:08:06;;;;;;;9.05;4.43;;;9.30;71.80;;;;;;4931492;29;20183;-76
2022/10/10 05:10:36;;;;;;;9.50;4.67;;;9.30;71.90;;;;;;4934500;29;20166;-76
2022/10/10 05:13:03;;;;;;;9.43;4.55;;;9.30;72.00;;;;;;4925002;29;20714;-76
2022/10/10 05:15:30;;;;;;;8.23;4.32;;;9.30;72.00;;;;;;4898435;29;20057;-76
2022/10/10 05:17:57;;;;;;;8.93;4.70;;;9.20;71.90;;;;;;4914326;29;20128;-76
2022/10/10 05:20:26;;;;;;;8.65;4.80;;;9.20;71.90;;;;;;4914709;29;20140;-76
2022/10/10 05:22:53;;;;;;;10.73;5.20;;;9.20;72.10;;;;;;4913935;29;20112;-76
2022/10/10 05:25:20;;;;;;;8.60;4.68;;;9.20;72.20;;;;;;4913828;29;20250;-76
2022/10/10 05:27:47;;;;;;;7.68;4.35;;;9.20;72.20;;;;;;4897710;29;20056;-76
2022/10/10 05:30:15;;;;;;;8.95;4.72;;;9.20;72.20;;;;;;4929263;29;20416;-76
2022/10/10 05:32:42;;;;;;;9.70;5.05;;;9.20;72.20;;;;;;4913613;29;20056;-76
2022/10/10 05:35:09;;;;;;;8.93;4.60;;;9.20;72.20;;;;;;4928839;29;20072;-76
2022/10/10 05:37:39;;;;;;;9.43;5.00;;;9.20;72.30;;;;;;4913583;29;20745;-76
2022/10/10 05:40:07;;;;;;;7.88;4.57;;;9.20;72.30;;;;;;4896747;29;20063;-76
2022/10/10 05:42:34;;;;;;;10.27;4.88;;;9.10;72.50;;;;;;4912156;29;20057;-76
2022/10/10 05:45:01;;;;;;;10.20;5.20;;;9.10;72.50;;;;;;4913734;29;20500;-75
2022/10/10 05:47:28;;;;;;;8.23;5.10;;;9.10;72.40;;;;;;4912792;29;20053;-76
2022/10/10 05:49:55;;;;;;;9.00;4.72;;;9.10;72.40;;;;;;4912703;29;20293;-76
2022/10/10 05:52:22;;;;;;;10.68;5.13;;;9.10;72.50;;;;;;4911511;29;20084;-76
2022/10/10 05:54:51;;;;;;;9.48;5.13;;;9.10;72.60;;;;;;4926744;29;20048;-76
2022/10/10 05:57:18;;;;;;;9.80;4.88;;;9.00;72.60;;;;;;4895979;29;20136;-76
2022/10/10 05:59:45;;;;;;;10.40;5.07;;;9.10;72.60;;;;;;4927219;28;20161;-76
2022/10/10 06:02:12;;;;;;;8.68;4.55;;;9.00;72.60;;;;;;4926214;28;20780;-76
2022/10/10 06:04:40;;;;;;;10.25;4.85;;;9.00;72.70;;;;;;4896187;29;20049;-76
2022/10/10 06:07:08;;;;;;;9.05;4.78;;;9.00;72.80;;;;;;4912915;29;20140;-76
2022/10/10 06:09:35;;;;;;;9.02;4.97;;;9.00;72.70;;;;;;4913011;29;20160;-76
2022/10/10 06:12:03;;;;;;;9.17;4.93;;;9.00;72.80;;;;;;4928995;29;20144;-76
2022/10/10 06:14:30;;;;;;;9.02;4.97;;;9.00;72.80;;;;;;4913228;29;20276;-76
2022/10/10 06:16:58;;;;;;;10.38;5.00;;;9.00;72.80;;;;;;4913106;29;20045;-76
2022/10/10 06:19:24;;;;;;;9.98;4.93;;;9.00;72.90;;;;;;4922973;29;20048;-76
2022/10/10 06:21:52;;;;;;;8.80;5.05;;;9.00;73.10;;;;;;4915312;29;20127;-76
2022/10/10 06:24:19;;;;;;;10.03;5.00;;;9.00;73.00;;;;;;4916464;29;20086;-76
2022/10/10 06:26:46;;;;;;;9.68;4.68;;;9.00;73.30;;;;;;4912566;29;20676;-76
2022/10/10 06:29:14;;;;;;;10.10;5.10;;;9.00;73.20;;;;;;4894384;29;20057;-77
2022/10/10 06:31:41;;;;;;;10.02;4.63;;;9.00;73.30;;;;;;4903665;29;20048;-76
2022/10/10 06:34:08;;;;;;;9.55;5.07;;;9.00;73.30;;;;;;4901484;29;20582;-76
2022/10/10 06:36:35;;;;;;;9.80;5.43;;;9.00;73.40;;;;;;4901012;29;20055;-75
2022/10/10 06:39:02;;;;;;;8.30;4.68;;;9.00;73.50;;;;;;4913439;29;20380;-76
2022/10/10 06:41:29;;;;;;;10.75;5.18;;;9.00;73.60;;;;;;4898291;29;20131;-76
2022/10/10 06:43:56;;;;;;;9.32;4.97;;;9.00;73.70;;;;;;4900738;29;20057;-76
2022/10/10 06:46:25;;;;;;;11.93;5.43;;;9.00;73.80;;;;;;4911991;29;20881;-75
2022/10/10 06:48:52;;;;;;;10.13;5.10;;;9.00;74.00;;;;;;4894659;29;20064;-76
2022/10/10 06:51:19;;;;;;;11.48;5.80;;;9.00;73.90;;;;;;4926929;28;20344;-76
2022/10/10 06:53:46;;;;;;;10.80;5.50;;;9.00;74.10;;;;;;4913455;29;20062;-76
2022/10/10 06:56:19;;;;;;;10.45;4.85;;;9.10;74.30;;;;;;4913164;29;20522;-76
2022/10/10 06:58:47;;;;;;;9.88;5.28;;;9.10;74.70;;;;;;4913087;29;20084;-76
2022/10/10 07:01:14;;;;;;;11.10;5.60;;;9.10;74.60;;;;;;4909996;29;20045;-76
2022/10/10 07:03:43;;;;;;;8.73;4.75;;;9.20;74.60;;;;;;4913219;29;20257;-76
2022/10/10 07:06:11;;;;;;;9.55;5.20;;;9.20;74.70;;;;;;4896151;29;20051;-76
2022/10/10 07:08:39;;;;;;;9.35;4.97;;;9.20;74.80;;;;;;4918544;29;20923;-77
2022/10/10 07:11:07;;;;;;;9.70;5.10;;;9.20;75.30;;;;;;4925927;29;20059;-77
2022/10/10 07:13:34;;;;;;;11.57;6.20;;;9.20;75.10;;;;;;4910106;29;20572;-77
2022/10/10 07:16:01;;;;;;;9.63;5.75;;;9.30;75.50;;;;;;4894191;29;20261;-76
2022/10/10 07:18:28;;;;;;;10.93;6.05;;;9.40;75.50;;;;;;4925737;28;20080;-76
2022/10/10 07:20:58;;;;;;;10.90;5.88;;;9.40;75.90;;;;;;4909936;29;20144;-76
2022/10/10 07:23:25;;;;;;;11.32;5.60;;;9.40;75.90;;;;;;4897321;29;20136;-75
2022/10/10 07:25:59;;;;;;;13.20;5.50;;;9.50;75.80;;;;;;4913738;29;20127;-75
2022/10/10 07:28:26;;;;;;;12.88;5.90;;;9.50;75.80;;;;;;4912869;29;20297;-76
2022/10/10 07:31:00;;;;;;;10.75;5.35;;;9.50;76.00;;;;;;4912597;29;20562;-75
2022/10/10 07:33:31;;;;;;;10.00;5.78;;;9.60;76.00;;;;;;4908937;29;20060;-75
2022/10/10 07:35:59;;;;;;;11.65;6.13;;;9.60;76.20;;;;;;4927128;29;20568;-76
2022/10/10 07:38:27;;;;;;;13.40;6.30;;;9.60;76.40;;;;;;4930815;29;20063;-76
2022/10/10 07:40:54;;;;;;;11.63;6.40;;;9.70;76.20;;;;;;4932196;28;20787;-75
2022/10/10 07:43:21;;;;;;;10.13;5.32;;;9.70;75.90;;;;;;4913861;29;20128;-76
2022/10/10 07:45:48;;;;;;;11.75;5.40;;;9.70;76.00;;;;;;4916642;29;20594;-77
2022/10/10 07:48:15;;;;;;;12.13;6.10;;;9.70;75.90;;;;;;4926904;29;20064;-76
2022/10/10 07:50:43;;;;;;;12.60;6.17;;;9.80;76.00;;;;;;4907067;29;20103;-76
2022/10/10 07:53:12;;;;;;;13.43;6.22;;;9.80;76.10;;;;;;4918790;29;20341;-78
2022/10/10 07:55:39;;;;;;;11.48;5.80;;;9.80;76.10;;;;;;4898865;29;20053;-77
2022/10/10 07:58:06;;;;;;;10.27;5.85;;;9.80;75.90;;;;;;4908819;29;20052;-76
2022/10/10 08:00:34;;;;;;;11.20;6.28;;;9.80;76.10;;;;;;4925058;29;20060;-76
2022/10/10 08:03:01;;;;;;;10.27;6.20;;;9.90;76.10;;;;;;4903685;29;20052;-77
2022/10/10 08:05:29;;;;;;;12.35;6.90;;;9.90;76.30;;;;;;4908272;29;20281;-78
2022/10/10 08:07:56;;;;;;;14.07;6.40;;;10.00;76.50;;;;;;4930150;29;20083;-76
2022/10/10 08:10:24;;;;;;;14.60;5.65;;;10.00;76.40;;;;;;4913781;29;20044;-77
2022/10/10 08:12:51;;;;;;;12.40;6.15;;;10.00;76.80;;;;;;4933265;29;20112;-76
2022/10/10 08:15:19;;;;;;;11.20;5.80;;;10.00;76.70;;;;;;4930080;29;20527;-77
2022/10/10 08:17:46;;;;;;;9.35;5.70;;;10.00;76.50;;;;;;4929875;29;20307;-77
2022/10/10 08:20:12;;;;;;;11.00;5.72;;;10.10;76.90;;;;;;4931876;28;20051;-76
2022/10/10 08:22:40;;;;;;;11.32;5.80;;;10.10;76.90;;;;;;4922533;29;20064;-76
2022/10/10 08:25:07;;;;;;;9.25;6.03;;;10.20;77.50;;;;;;4907233;29;20060;-76
2022/10/10 08:27:36;;;;;;;11.53;6.40;;;10.20;77.30;;;;;;4929206;28;20061;-76
2022/10/10 08:30:04;;;;;;;11.88;5.88;;;10.30;77.80;;;;;;4914594;29;20772;-76
2022/10/10 08:32:30;;;;;;;11.52;5.82;;;10.30;77.60;;;;;;4914109;29;20081;-76
2022/10/10 08:34:57;;;;;;;12.10;6.20;;;10.40;77.70;;;;;;4914388;29;20083;-76
2022/10/10 08:37:25;;;;;;;10.25;6.20;;;10.50;77.90;;;;;;4915966;29;20067;-76
2022/10/10 08:39:52;;;;;;;11.87;6.37;;;10.50;77.90;;;;;;4914312;29;20057;-76
2022/10/10 08:42:26;;;;;;;12.15;6.68;;;10.50;78.00;;;;;;4938043;28;20756;-76
2022/10/10 08:44:58;;;;;;;9.82;5.47;;;10.60;78.30;;;;;;4921386;29;20127;-76
2022/10/10 08:47:30;;;;;;;11.05;6.32;;;10.70;78.20;;;;;;4910719;29;20550;-76
2022/10/10 08:50:01;;;;;;;13.27;6.80;;;10.80;78.60;;;;;;4904753;29;20055;-76
2022/10/10 08:52:34;;;;;;;11.47;6.40;;;10.80;78.40;;;;;;4926280;29;20229;-76
2022/10/10 08:55:07;;;;;;;9.18;6.10;;;10.90;78.40;;;;;;4901259;29;20341;-76
2022/10/10 08:57:46;;;;;;;12.77;7.15;;;11.00;78.80;;;;;;4912861;29;20049;-75
2022/10/10 09:00:17;;;;;;;11.95;7.22;;;11.10;78.60;;;;;;4922311;29;20140;-76
2022/10/10 09:02:50;;;;;;;11.63;6.57;;;11.10;78.50;;;;;;4942034;28;20230;-76
2022/10/10 09:05:20;;;;;;;11.03;6.67;;;11.30;78.50;;;;;;4930141;29;20059;-77
2022/10/10 09:08:01;;;;;;;10.18;6.40;;;11.40;78.30;;;;;;4916583;29;20304;-79
2022/10/10 09:10:36;;;;;;;11.95;6.43;;;11.40;78.20;;;;;;4905503;29;20053;-78
2022/10/10 09:13:15;;;;;;;13.48;7.07;;;11.50;78.30;;;;;;4916291;29;20107;-78
2022/10/10 09:15:53;;;;;;;13.18;7.25;;;11.50;78.30;;;;;;4915581;29;20080;-78
2022/10/10 09:18:31;;;;;;;12.93;6.40;;;11.70;78.20;;;;;;4904520;29;20060;-77
2022/10/10 09:21:05;;;;;;;12.40;6.30;;;11.70;78.00;;;;;;4912843;29;20269;-77
2022/10/10 09:23:34;;;;;;;10.38;6.15;;;11.90;78.00;;;;;;4928760;29;20052;-77
2022/10/10 09:26:05;;;;;;;14.18;6.20;;;11.90;77.70;;;;;;4911023;29;20061;-77
2022/10/10 09:28:39;;;;;;;11.35;6.38;;;11.90;77.90;;;;;;4913393;29;20053;-77
2022/10/10 09:31:15;;;;;;;16.03;6.40;;;12.00;78.00;;;;;;4913622;29;20049;-77
2022/10/10 09:33:48;;;;;;;13.32;6.70;;;12.10;78.10;;;;;;4915963;29;20485;-77
2022/10/10 09:36:19;;;;;;;11.65;5.85;;;12.20;78.10;;;;;;4897311;29;20067;-77
2022/10/10 09:38:50;;;;;;;11.73;6.90;;;12.30;77.80;;;;;;4929555;29;20542;-78
2022/10/10 09:41:20;;;;;;;10.35;6.88;;;12.40;77.80;;;;;;4920669;29;20059;-77
2022/10/10 09:43:48;;;;;;;12.03;6.90;;;12.50;77.80;;;;;;4919492;29;20140;-77
2022/10/10 09:46:16;;;;;;;11.02;6.18;;;12.50;77.50;;;;;;4896201;29;20288;-76
2022/10/10 09:48:44;;;;;;;12.10;6.45;;;12.70;77.20;;;;;;4898675;29;20052;-77
2022/10/10 09:51:15;;;;;;;12.55;6.47;;;12.70;77.30;;;;;;4920386;29;20121;-76
2022/10/10 09:53:43;;;;;;;12.23;6.40;;;12.80;77.20;;;;;;4900287;29;20049;-76
2022/10/10 09:56:16;;;;;;;12.67;5.90;;;13.00;76.90;;;;;;4901202;29;20550;-77
2022/10/10 09:58:45;;;;;;;13.40;6.28;;;13.10;76.60;;;;;;4897124;29;20293;-77
2022/10/10 10:01:17;;;;;;;10.07;5.80;;;13.10;76.60;;;;;;4916252;29;20052;-76
2022/10/10 10:03:44;;;;;;;11.85;6.40;;;13.20;76.40;;;;;;4906519;29;20064;-76
2022/10/10 10:06:14;;;;;;;11.32;6.00;;;13.30;76.20;;;;;;4927529;29;20104;-76
2022/10/10 10:08:42;;;;;;;10.93;6.03;;;13.30;76.10;;;;;;4912535;29;20463;-76
2022/10/10 10:11:24;;;;;;;14.50;7.80;;;13.30;76.10;;;;;;4913286;29;20270;-76
2022/10/10 10:13:55;;;;;;;13.30;7.35;;;13.50;75.90;;;;;;4912419;29;20056;-76
2022/10/10 10:16:32;;;;;;;12.82;6.78;;;13.50;75.80;;;;;;4926498;29;20063;-75
2022/10/10 10:18:59;;;;;;;11.98;6.20;;;13.50;75.70;;;;;;4895564;29;20048;-75
2022/10/10 10:21:28;;;;;;;12.10;5.97;;;13.60;75.70;;;;;;4913699;29;20053;-76
2022/10/10 10:24:00;;;;;;;13.02;6.28;;;13.60;75.70;;;;;;4896281;29;20329;-76
2022/10/10 10:26:33;;;;;;;11.23;6.03;;;13.70;75.70;;;;;;4912408;29;20056;-76
2022/10/10 10:29:00;;;;;;;9.80;6.40;;;13.70;75.70;;;;;;4894627;29;20052;-76
2022/10/10 10:31:51;;;;;;;10.27;6.03;;;13.80;75.50;;;;;;4896117;29;20056;-76
2022/10/10 10:34:59;;;;;;;11.13;5.63;;;13.90;75.30;;;;;;4910855;29;20061;-76
2022/10/10 10:37:33;;;;;;;11.02;5.70;;;13.90;75.40;;;;;;4908989;29;20870;-77
2022/10/10 10:40:25;;;;;;;10.18;5.80;;;14.00;75.50;;;;;;4893226;29;20139;-76
2022/10/10 10:43:18;;;;;;;12.75;6.18;;;14.00;75.50;;;;;;4915711;29;20132;-76
2022/10/10 10:45:58;;;;;;;10.07;5.90;;;14.10;75.20;;;;;;4912368;29;20056;-76
2022/10/10 10:48:31;;;;;;;11.33;5.13;;;14.20;75.00;;;;;;4916754;29;20571;-76
2022/10/10 10:51:08;;;;;;;10.70;5.55;;;14.30;74.80;;;;;;4923916;29;20782;-76
2022/10/10 10:53:43;;;;;;;12.18;6.22;;;14.40;74.50;;;;;;4896455;29;20051;-76
2022/10/10 10:56:23;;;;;;;10.23;5.30;;;14.50;74.00;;;;;;4928922;29;20067;-76
2022/10/10 10:59:27;;;;;;;10.10;5.35;;;14.50;73.60;;;;;;4918656;29;20980;-77
2022/10/10 11:02:02;;;;;;;11.93;6.30;;;14.60;73.70;;;;;;4919763;29;20052;-76
2022/10/10 11:05:06;;;;;;;9.75;5.50;;;14.60;73.20;;;;;;4911296;29;20269;-77
2022/10/10 11:07:41;;;;;;;8.77;5.55;;;14.70;72.80;;;;;;4896411;29;20140;-75
2022/10/10 11:10:14;;;;;;;10.43;6.15;;;14.70;72.90;;;;;;4919068;29;20044;-75
2022/10/10 11:12:53;;;;;;;11.45;5.50;;;14.70;72.60;;;;;;4915853;29;20113;-76
2022/10/10 11:15:26;;;;;;;9.20;5.10;;;14.80;72.50;;;;;;4906359;29;20044;-76
2022/10/10 11:17:56;;;;;;;9.52;5.20;;;14.80;72.50;;;;;;4936302;28;20274;-76
2022/10/10 11:20:30;;;;;;;9.93;5.22;;;14.80;72.40;;;;;;4907005;29;20643;-76
2022/10/10 11:23:05;;;;;;;12.35;5.65;;;14.80;72.50;;;;;;4916550;29;20059;-75
2022/10/10 11:25:36;;;;;;;11.18;5.82;;;14.80;72.30;;;;;;4917216;29;20507;-76
2022/10/10 11:28:10;;;;;;;8.63;5.23;;;14.90;72.20;;;;;;4914808;29;20464;-76
2022/10/10 11:30:44;;;;;;;9.57;5.70;;;14.90;72.30;;;;;;4912137;29;20662;-77
2022/10/10 11:33:15;;;;;;;10.77;5.53;;;14.90;72.40;;;;;;4895420;29;20053;-76
2022/10/10 11:35:46;;;;;;;9.95;5.50;;;14.90;72.20;;;;;;4921974;29;20049;-76
2022/10/10 11:38:20;;;;;;;11.48;5.65;;;14.90;72.30;;;;;;4913246;29;20089;-76
2022/10/10 11:40:53;;;;;;;9.70;5.30;;;14.90;72.50;;;;;;4909265;29;20052;-76
2022/10/10 11:43:31;;;;;;;10.88;5.97;;;14.90;72.50;;;;;;4930768;29;20383;-77
2022/10/10 11:46:05;;;;;;;10.90;6.07;;;14.90;72.30;;;;;;4936415;28;20103;-76
2022/10/10 11:48:41;;;;;;;10.55;5.75;;;14.90;72.30;;;;;;4925929;29;20064;-75
2022/10/10 11:51:19;;;;;;;10.60;5.68;;;14.90;72.10;;;;;;4932226;29;20052;-75
2022/10/10 11:53:53;;;;;;;10.90;5.43;;;14.90;72.20;;;;;;4929807;29;21352;-75
2022/10/10 11:56:28;;;;;;;10.55;5.57;;;14.90;72.50;;;;;;4930384;29;20788;-75
2022/10/10 11:59:00;;;;;;;8.85;5.57;;;14.90;72.50;;;;;;4923873;29;20120;-74
2022/10/10 12:01:30;;;;;;;10.82;5.97;;;14.80;72.50;;;;;;4922497;29;20060;-75
2022/10/10 12:03:57;;;;;;;11.52;5.75;;;14.80;72.70;;;;;;4906577;29;20084;-75
2022/10/10 12:06:30;;;;;;;11.67;5.67;;;14.90;72.80;;;;;;4859144;29;20550;-75
2022/10/10 12:09:02;;;;;;;9.55;5.63;;;14.80;73.00;;;;;;4896948;29;20286;-76
2022/10/10 12:11:34;;;;;;;12.55;6.07;;;14.80;73.10;;;;;;4912928;29;20056;-73
2022/10/10 12:14:03;;;;;;;11.23;5.35;;;14.80;73.20;;;;;;4896889;29;20052;-73
2022/10/10 12:16:34;;;;;;;9.63;5.25;;;14.80;73.20;;;;;;4896053;29;20063;-74
2022/10/10 12:19:04;;;;;;;10.80;6.40;;;14.80;73.30;;;;;;4913672;29;20052;-73
2022/10/10 12:21:52;;;;;;;10.48;5.90;;;14.90;73.60;;;;;;4913821;29;20260;-74
2022/10/10 12:24:20;;;;;;;9.95;5.90;;;14.90;73.70;;;;;;4895771;29;20049;-74
2022/10/10 12:27:30;;;;;;;11.73;6.25;;;14.90;73.90;;;;;;4897084;29;20053;-74
2022/10/10 12:30:19;;;;;;;13.63;5.93;;;14.80;74.00;;;;;;4914482;29;20060;-74
2022/10/10 12:32:49;;;;;;;12.10;5.87;;;14.80;74.40;;;;;;4913068;29;20575;-74
2022/10/10 12:35:33;;;;;;;12.65;6.20;;;14.90;74.50;;;;;;4897105;29;20751;-74
2022/10/10 12:38:18;;;;;;;12.55;6.60;;;14.90;74.70;;;;;;4897860;29;20066;-74
2022/10/10 12:41:08;;;;;;;13.73;7.28;;;14.90;75.10;;;;;;4894183;29;20049;-76
2022/10/10 12:43:41;;;;;;;13.27;6.85;;;14.90;75.60;;;;;;4893453;29;20467;-76
2022/10/10 12:46:17;;;;;;;13.67;6.73;;;14.90;76.10;;;;;;4911406;29;20055;-77
2022/10/10 12:48:45;;;;;;;14.32;7.13;;;14.90;76.50;;;;;;4897614;29;20284;-74
2022/10/10 12:51:20;;;;;;;13.82;6.57;;;14.90;76.50;;;;;;4912025;29;20056;-75
2022/10/10 12:53:52;;;;;;;12.07;6.65;;;14.90;76.80;;;;;;4909718;29;20056;-75
2022/10/10 12:56:37;;;;;;;12.30;6.20;;;14.90;76.90;;;;;;4896305;29;20060;-75
2022/10/10 12:59:06;;;;;;;13.73;6.93;;;14.80;77.20;;;;;;4913873;29;20416;-75
2022/10/10 13:01:38;;;;;;;15.43;7.05;;;14.90;77.60;;;;;;4913754;29;20376;-74
2022/10/10 13:04:05;;;;;;;13.88;7.43;;;14.80;77.40;;;;;;4896898;29;21010;-75
2022/10/10 13:06:37;;;;;;;14.88;7.15;;;14.80;77.60;;;;;;4898705;29;20132;-74
2022/10/10 13:09:11;;;;;;;14.65;7.20;;;14.80;77.90;;;;;;4897526;29;20048;-74